Hoisington, Kansas
Current Conditions -  °F | °C
As of 3:15 PM on Sunday 23 Nov 2014 (Local Time) from KGBD Reporting Station
Overcast Overcast  
Wind Chill: 36°   Ceiling: 9000
Heat Index: 45°   Visibility: 10mi
Dew Point: 32°   Wind: 24mph
Humidity: 61%   Direction: 350°N
Pressure: 29.57"   Gusts: 33mph
Location:  38.52°N, 98.78°W
Report Text: KGBD 232115Z AUTO 35021G29KT 10SM OVC090 07/00 A2957 RMK AO1
Loading
Personal Weather Stations






























Interactive Weather Map New forecast layout! Learn more

10-Day Weather Forecast

Advertisements
Track Severe Weather on mobile